Time;durP1;ratioP1;P1;durP2;ratioP2;P2;SDS_P1;SDS_P2;PMS_P1;PMS_P2;Temp;Humidity;BMP_temperature;BMP_pressure;BME280_temperature;BME280_humidity;BME280_pressure;Samples;Min_cycle;Max_cycle;Signal;HPM_P1;HPM_P2
2022/05/07 00:01:03;;;;;;;1.53;1.07;;;12.50;89.70;;;;;;5138010;27;20466;-57
2022/05/07 00:03:31;;;;;;;1.70;1.00;;;12.50;1.00;;;;;;5138110;27;20463;-58
2022/05/07 00:05:58;;;;;;;1.90;0.80;;;12.50;1.00;;;;;;5137671;27;20456;-59
2022/05/07 00:08:25;;;;;;;2.47;0.90;;;12.40;1.00;;;;;;5139182;27;20538;-59
2022/05/07 00:10:52;;;;;;;1.80;0.90;;;12.40;23.20;;;;;;5137332;27;20443;-58
2022/05/07 00:13:19;;;;;;;1.60;1.00;;;12.30;57.40;;;;;;5132935;27;20470;-57
2022/05/07 00:18:01;;;;;;;1.53;1.00;;;12.30;99.90;;;;;;5134124;27;20483;-58
2022/05/07 00:18:33;;;;;;;1.23;0.80;;;12.30;99.90;;;;;;5135232;27;20458;-58
2022/05/07 00:21:00;;;;;;;1.50;0.90;;;12.20;99.90;;;;;;5131404;27;20946;-57
2022/05/07 00:23:26;;;;;;;1.63;1.00;;;12.20;99.90;;;;;;5138159;27;21014;-58
2022/05/07 00:25:53;;;;;;;1.60;1.00;;;12.10;99.90;;;;;;5139588;27;20444;-58
2022/05/07 00:28:20;;;;;;;5.20;1.10;;;12.10;99.90;;;;;;5139273;27;20469;-58
2022/05/07 00:30:47;;;;;;;1.37;0.97;;;12.10;99.90;;;;;;5137990;27;20502;-58
2022/05/07 00:33:14;;;;;;;1.30;1.00;;;12.10;99.90;;;;;;5139651;27;20459;-57
2022/05/07 00:36:04;;;;;;;4.70;1.00;;;12.10;99.90;;;;;;5133387;27;20479;-57
2022/05/07 00:38:31;;;;;;;1.67;0.93;;;12.20;99.90;;;;;;5131972;27;20470;-57
2022/05/07 00:40:59;;;;;;;2.03;1.00;;;12.20;1.00;;;;;;5137533;27;20456;-57
2022/05/07 00:43:25;;;;;;;1.30;0.90;;;12.20;99.90;;;;;;5138414;27;20987;-57
2022/05/07 00:45:55;;;;;;;1.43;0.90;;;12.20;99.90;;;;;;5138776;27;20444;-56
2022/05/07 00:48:22;;;;;;;2.13;1.00;;;12.20;99.90;;;;;;5133608;27;20953;-57
2022/05/07 00:53:35;;;;;;;1.47;0.90;;;12.10;99.90;;;;;;5135544;27;20447;-59
2022/05/07 00:56:02;;;;;;;1.30;1.00;;;12.10;99.90;;;;;;5127842;27;20527;-56
2022/05/07 00:58:29;;;;;;;1.60;1.00;;;12.10;1.00;;;;;;5113318;28;20460;-57
2022/05/07 01:00:56;;;;;;;2.00;0.93;;;12.10;99.90;;;;;;5117987;28;20971;-56
2022/05/07 01:03:23;;;;;;;1.27;0.93;;;12.00;99.90;;;;;;5118268;28;20551;-57
2022/05/07 01:05:51;;;;;;;1.40;0.90;;;12.00;1.00;;;;;;5118078;28;20436;-57
2022/05/07 01:08:19;;;;;;;2.60;1.10;;;12.00;99.90;;;;;;5115383;28;20812;-57
2022/05/07 01:10:48;;;;;;;1.50;0.90;;;12.00;99.90;;;;;;5114012;28;20782;-57
2022/05/07 01:13:15;;;;;;;1.87;1.00;;;12.00;99.90;;;;;;5116603;28;20461;-57
2022/05/07 01:15:45;;;;;;;1.30;0.90;;;12.00;99.90;;;;;;5114111;28;20480;-57
2022/05/07 01:18:12;;;;;;;2.10;0.80;;;11.90;99.90;;;;;;5116968;28;20872;-57
2022/05/07 01:20:39;;;;;;;1.77;0.90;;;11.90;99.90;;;;;;5116451;28;20550;-57
2022/05/07 01:23:08;;;;;;;1.10;0.90;;;11.90;99.90;;;;;;5115496;28;20555;-57
2022/05/07 01:25:35;;;;;;;6.53;1.20;;;11.90;1.00;;;;;;5114932;28;20445;-58
2022/05/07 01:28:57;;;;;;;2.97;0.80;;;11.90;99.90;;;;;;5111835;28;20445;-57
2022/05/07 01:31:26;;;;;;;1.27;0.90;;;11.90;99.90;;;;;;5113472;28;20852;-57
2022/05/07 01:33:53;;;;;;;3.00;0.97;;;11.80;99.90;;;;;;5116458;28;20463;-57
2022/05/07 01:36:20;;;;;;;1.23;1.00;;;11.70;1.00;;;;;;5114776;28;20480;-57
2022/05/07 01:38:49;;;;;;;1.47;1.00;;;11.70;1.00;;;;;;5115336;28;20808;-57
2022/05/07 01:41:16;;;;;;;1.50;1.10;;;11.60;1.00;;;;;;5116459;28;20456;-56
2022/05/07 01:43:43;;;;;;;1.30;0.90;;;11.60;1.00;;;;;;5113732;28;20469;-56
2022/05/07 01:48:09;;;;;;;3.60;1.10;;;11.60;1.00;;;;;;5115079;28;20448;-58
2022/05/07 01:48:56;;;;;;;1.90;1.00;;;11.60;1.00;;;;;;5113119;28;20448;-58
2022/05/07 01:51:22;;;;;;;2.23;1.30;;;11.60;1.00;;;;;;5115897;28;20896;-58
2022/05/07 01:53:51;;;;;;;2.37;0.90;;;11.50;1.00;;;;;;5110671;28;20496;-58
2022/05/07 01:56:17;;;;;;;1.60;0.90;;;11.50;1.00;;;;;;5114437;28;20809;-57
2022/05/07 01:58:46;;;;;;;1.40;0.90;;;11.50;1.00;;;;;;5108155;28;20466;-58
2022/05/07 02:01:13;;;;;;;1.50;1.20;;;11.50;1.00;;;;;;5108433;28;20465;-57
2022/05/07 02:03:40;;;;;;;2.00;0.93;;;11.50;1.00;;;;;;5113795;28;20468;-56
2022/05/07 02:06:06;;;;;;;2.03;1.43;;;11.50;1.00;;;;;;5116486;28;20770;-57
2022/05/07 02:08:34;;;;;;;1.10;0.80;;;11.50;1.00;;;;;;5117602;28;20459;-56
2022/05/07 02:11:20;;;;;;;1.47;0.87;;;11.40;1.00;;;;;;5116125;28;20460;-57
2022/05/07 02:13:47;;;;;;;2.03;0.90;;;11.40;1.00;;;;;;5114824;28;20453;-56
2022/05/07 02:16:14;;;;;;;1.50;1.00;;;11.40;1.00;;;;;;5116191;28;20490;-56
2022/05/07 02:18:41;;;;;;;1.40;1.20;;;11.40;1.00;;;;;;5112451;28;20467;-57
2022/05/07 02:21:08;;;;;;;2.00;1.23;;;11.50;1.00;;;;;;5117194;28;20459;-55
2022/05/07 02:23:35;;;;;;;1.57;0.90;;;11.50;1.00;;;;;;5115215;28;20531;-57
2022/05/07 02:26:02;;;;;;;1.40;1.20;;;11.40;1.00;;;;;;5115926;28;20829;-57
2022/05/07 02:28:30;;;;;;;1.33;0.87;;;11.40;1.00;;;;;;5113420;28;20551;-57
2022/05/07 02:30:57;;;;;;;3.97;1.30;;;11.40;1.00;;;;;;5116162;28;20467;-57
2022/05/07 02:33:24;;;;;;;3.10;1.00;;;11.40;1.00;;;;;;5113319;28;20465;-56
2022/05/07 02:35:51;;;;;;;1.23;0.90;;;11.40;1.00;;;;;;5116225;28;20492;-56
2022/05/07 02:38:17;;;;;;;1.83;1.10;;;11.30;1.00;;;;;;5114301;28;20880;-56
2022/05/07 02:43:30;;;;;;;1.67;1.00;;;11.30;1.00;;;;;;5116213;28;20412;-57
2022/05/07 02:45:56;;;;;;;1.30;0.80;;;11.20;1.00;;;;;;5114209;28;20467;-57
2022/05/07 02:48:25;;;;;;;1.33;0.93;;;11.20;1.00;;;;;;5113868;28;20971;-57
2022/05/07 02:50:52;;;;;;;3.60;1.17;;;11.30;1.00;;;;;;5115796;28;20459;-56
2022/05/07 02:53:18;;;;;;;1.77;0.90;;;11.20;1.00;;;;;;5115204;28;20445;-57
2022/05/07 02:55:45;;;;;;;1.60;0.90;;;11.10;1.00;;;;;;5120796;27;20574;-56
2022/05/07 02:58:12;;;;;;;1.40;1.07;;;11.20;1.00;;;;;;5135408;27;20459;-57
2022/05/07 03:00:41;;;;;;;1.37;0.90;;;11.20;1.00;;;;;;5134261;27;20482;-57
2022/05/07 03:03:08;;;;;;;1.40;1.00;;;11.10;1.00;;;;;;5134528;27;20456;-57
2022/05/07 03:05:35;;;;;;;2.73;0.90;;;11.10;1.00;;;;;;5135628;27;20460;-57
2022/05/07 03:08:01;;;;;;;1.43;0.90;;;11.10;1.00;;;;;;5135066;27;20466;-56
2022/05/07 03:10:28;;;;;;;1.87;0.90;;;11.10;1.00;;;;;;5136972;27;20466;-57
2022/05/07 03:12:55;;;;;;;1.43;1.07;;;11.10;1.00;;;;;;5134037;28;20478;-56
2022/05/07 03:15:22;;;;;;;1.33;1.00;;;11.10;1.00;;;;;;5135206;28;20463;-56
2022/05/07 03:17:50;;;;;;;4.60;0.90;;;11.10;1.00;;;;;;5134345;28;20455;-56
2022/05/07 03:20:18;;;;;;;2.20;0.90;;;11.00;1.00;;;;;;5134817;28;20467;-57
2022/05/07 03:22:45;;;;;;;1.00;0.80;;;11.10;1.00;;;;;;5134921;28;20891;-57
2022/05/07 03:25:12;;;;;;;1.23;0.80;;;11.00;1.00;;;;;;5135664;28;20902;-56
2022/05/07 03:27:39;;;;;;;1.97;0.90;;;11.00;1.00;;;;;;5136426;28;20447;-56
2022/05/07 03:30:08;;;;;;;1.30;0.97;;;11.00;1.00;;;;;;5130700;28;20466;-55
2022/05/07 03:32:34;;;;;;;2.07;0.90;;;10.90;1.00;;;;;;5134130;28;20478;-57
2022/05/07 03:35:03;;;;;;;1.57;1.00;;;10.90;1.00;;;;;;5129555;27;20459;-56
2022/05/07 03:37:30;;;;;;;1.53;0.90;;;10.90;1.00;;;;;;5140332;27;20575;-56
2022/05/07 03:39:57;;;;;;;1.63;1.07;;;10.80;1.00;;;;;;5138293;27;20463;-56
2022/05/07 03:42:25;;;;;;;1.30;0.87;;;10.70;1.00;;;;;;5139090;27;20940;-57
2022/05/07 03:44:52;;;;;;;1.27;1.00;;;10.70;1.00;;;;;;5136266;27;20793;-56
2022/05/07 03:47:18;;;;;;;2.03;0.97;;;10.70;1.00;;;;;;5140475;27;20447;-56
2022/05/07 03:49:45;;;;;;;2.03;0.80;;;10.70;1.00;;;;;;5138697;27;20455;-57
2022/05/07 03:55:29;;;;;;;1.50;0.93;;;10.70;1.00;;;;;;5139570;27;20427;-56
2022/05/07 03:57:55;;;;;;;1.00;0.80;;;10.70;1.00;;;;;;5117211;28;20484;-58
2022/05/07 04:00:22;;;;;;;1.50;1.30;;;10.80;1.00;;;;;;5118353;28;20539;-56
2022/05/07 04:02:49;;;;;;;1.30;0.80;;;10.80;1.00;;;;;;5118379;28;20459;-58
2022/05/07 04:05:16;;;;;;;1.70;0.93;;;10.70;1.00;;;;;;5119773;28;20542;-56
2022/05/07 04:07:44;;;;;;;1.17;0.80;;;10.80;1.00;;;;;;5118342;28;20759;-54
2022/05/07 04:10:11;;;;;;;1.40;0.93;;;10.90;1.00;;;;;;5119400;28;20602;-56
2022/05/07 04:12:38;;;;;;;1.80;0.90;;;10.90;1.00;;;;;;5119392;28;20459;-56
2022/05/07 04:15:06;;;;;;;1.53;1.00;;;10.90;1.00;;;;;;5119790;28;20454;-56
2022/05/07 04:17:32;;;;;;;1.50;1.00;;;10.90;1.00;;;;;;5116559;28;20779;-54
2022/05/07 04:19:59;;;;;;;1.50;0.90;;;10.80;1.00;;;;;;5117913;28;20445;-56
2022/05/07 04:22:26;;;;;;;1.30;0.90;;;10.70;1.00;;;;;;5117328;28;20472;-56
2022/05/07 04:24:54;;;;;;;4.73;1.10;;;10.70;1.00;;;;;;5117637;28;20472;-56
2022/05/07 04:27:21;;;;;;;1.23;1.00;;;10.60;1.00;;;;;;5115972;28;20466;-54
2022/05/07 04:29:48;;;;;;;1.40;0.83;;;10.60;1.00;;;;;;5119515;28;20872;-54
2022/05/07 04:32:14;;;;;;;1.30;0.87;;;10.60;1.00;;;;;;5119393;28;20459;-56
2022/05/07 04:34:41;;;;;;;1.90;1.00;;;10.60;1.00;;;;;;5117339;28;20461;-56
2022/05/07 04:40:31;;;;;;;1.80;1.00;;;10.70;1.00;;;;;;5118091;28;20456;-58
2022/05/07 04:42:58;;;;;;;2.30;1.00;;;10.70;1.00;;;;;;5117647;28;20461;-56
2022/05/07 04:45:25;;;;;;;1.50;0.90;;;10.80;1.00;;;;;;5115687;28;20496;-58
2022/05/07 04:47:52;;;;;;;1.40;0.90;;;10.80;1.00;;;;;;5117587;28;20767;-58
2022/05/07 04:50:19;;;;;;;1.30;0.90;;;10.90;1.00;;;;;;5117727;28;20455;-58
2022/05/07 04:52:46;;;;;;;1.50;0.93;;;10.90;1.00;;;;;;5117102;28;20465;-57
2022/05/07 04:55:13;;;;;;;1.97;1.00;;;10.90;1.00;;;;;;5116629;28;20510;-58
2022/05/07 04:57:41;;;;;;;1.47;0.90;;;11.00;1.00;;;;;;5133911;27;20494;-57
2022/05/07 05:00:09;;;;;;;1.20;0.90;;;10.90;1.00;;;;;;5138277;27;20911;-57
2022/05/07 05:02:36;;;;;;;1.73;1.00;;;10.80;1.00;;;;;;5134918;27;20463;-57
2022/05/07 05:05:03;;;;;;;1.43;0.87;;;10.80;1.00;;;;;;5138226;27;20459;-56
2022/05/07 05:07:30;;;;;;;2.87;1.00;;;10.80;1.00;;;;;;5139121;27;20458;-58
2022/05/07 05:10:03;;;;;;;3.37;1.00;;;10.80;1.00;;;;;;5137838;27;20459;-57
2022/05/07 05:12:30;;;;;;;1.60;1.00;;;10.80;1.00;;;;;;5137048;27;20495;-57
2022/05/07 05:15:04;;;;;;;1.60;1.03;;;10.80;1.00;;;;;;5135788;27;20812;-53
2022/05/07 05:17:32;;;;;;;1.70;1.10;;;10.80;1.00;;;;;;5138647;27;20529;-57
2022/05/07 05:19:59;;;;;;;1.87;1.10;;;10.80;1.00;;;;;;5136129;27;20470;-54
2022/05/07 05:22:26;;;;;;;3.13;1.00;;;10.90;1.00;;;;;;5138413;27;20463;-57
2022/05/07 05:24:53;;;;;;;1.63;1.00;;;11.00;1.00;;;;;;5137769;27;20546;-58
2022/05/07 05:27:20;;;;;;;1.50;0.90;;;11.10;1.00;;;;;;5138660;27;20897;-57
2022/05/07 05:29:47;;;;;;;4.43;1.30;;;11.20;1.00;;;;;;5135263;27;20460;-57
2022/05/07 05:32:17;;;;;;;2.37;1.13;;;11.30;1.00;;;;;;5130358;27;20465;-59
2022/05/07 05:34:49;;;;;;;1.37;0.97;;;11.40;1.00;;;;;;5138658;27;20558;-58
2022/05/07 05:37:16;;;;;;;2.10;1.13;;;11.40;1.00;;;;;;5136204;27;20510;-57
2022/05/07 05:39:43;;;;;;;1.70;1.13;;;11.40;1.00;;;;;;5136872;27;20470;-57
2022/05/07 05:42:44;;;;;;;2.17;1.27;;;11.50;1.00;;;;;;5134677;27;20902;-58
2022/05/07 05:45:11;;;;;;;2.10;1.27;;;11.40;1.00;;;;;;5137230;27;20556;-61
2022/05/07 05:47:40;;;;;;;1.50;1.00;;;11.40;1.00;;;;;;5129860;27;20457;-58
2022/05/07 05:50:07;;;;;;;2.63;1.10;;;11.30;1.00;;;;;;5137077;27;20592;-57
2022/05/07 05:52:34;;;;;;;1.47;1.00;;;11.40;1.00;;;;;;5137545;27;20451;-51
2022/05/07 05:55:01;;;;;;;1.50;1.20;;;11.40;1.00;;;;;;5136998;27;20502;-54
2022/05/07 05:57:28;;;;;;;1.57;0.97;;;11.50;1.00;;;;;;5133883;27;21241;-52
2022/05/07 05:59:55;;;;;;;1.70;1.17;;;11.50;99.90;;;;;;5124801;27;20460;-47
2022/05/07 06:02:23;;;;;;;3.97;1.57;;;11.50;1.00;;;;;;5127252;27;20479;-48
2022/05/07 06:04:51;;;;;;;3.40;2.33;;;11.60;1.00;;;;;;5134211;27;20455;-54
2022/05/07 06:07:17;;;;;;;2.50;1.07;;;11.70;99.90;;;;;;5134002;27;20459;-51
2022/05/07 06:09:44;;;;;;;3.40;1.37;;;11.70;99.90;;;;;;5136633;27;20454;-54
2022/05/07 06:12:11;;;;;;;2.90;1.47;;;11.80;99.90;;;;;;5130132;27;20471;-52
2022/05/07 06:14:39;;;;;;;3.17;1.50;;;11.80;99.90;;;;;;5132746;27;20459;-54
2022/05/07 06:17:06;;;;;;;1.50;1.10;;;11.80;99.90;;;;;;5133098;27;20541;-53
2022/05/07 06:19:33;;;;;;;1.80;1.20;;;11.90;7.80;;;;;;5128035;27;20821;-53
2022/05/07 06:22:01;;;;;;;2.70;1.70;;;11.90;99.90;;;;;;5131797;27;20458;-51
2022/05/07 06:27:31;;;;;;;3.87;1.50;;;12.20;1.00;;;;;;5132282;27;21172;-54
2022/05/07 06:29:59;;;;;;;1.57;1.20;;;12.40;1.00;;;;;;5131588;27;20455;-49
2022/05/07 06:32:30;;;;;;;2.83;1.60;;;12.40;1.00;;;;;;5132511;27;20475;-49
2022/05/07 06:34:57;;;;;;;3.53;1.50;;;12.50;99.90;;;;;;5133831;27;21144;-53
2022/05/07 06:37:26;;;;;;;3.40;1.60;;;12.60;1.00;;;;;;5131968;27;20487;-52
2022/05/07 06:39:53;;;;;;;2.40;1.27;;;12.60;99.90;;;;;;5130968;27;20763;-52
2022/05/07 06:42:19;;;;;;;2.70;1.93;;;12.70;1.00;;;;;;5124121;27;20455;-50
2022/05/07 06:44:46;;;;;;;2.83;1.30;;;12.70;1.00;;;;;;5129313;27;20977;-52
2022/05/07 06:47:13;;;;;;;4.00;1.47;;;12.90;99.90;;;;;;5126219;27;20510;-48
2022/05/07 06:49:41;;;;;;;1.40;1.10;;;13.20;1.00;;;;;;5131568;27;20487;-54
2022/05/07 06:52:08;;;;;;;4.43;1.97;;;13.30;99.90;;;;;;5134589;27;20535;-54
2022/05/07 06:54:36;;;;;;;4.43;2.23;;;13.40;1.00;;;;;;5133086;27;20466;-51
2022/05/07 06:57:04;;;;;;;3.47;2.00;;;13.30;1.00;;;;;;5124842;27;20471;-54
2022/05/07 06:59:31;;;;;;;2.80;1.50;;;13.30;1.00;;;;;;5126361;27;20932;-50
2022/05/07 07:01:58;;;;;;;3.43;1.70;;;13.40;99.90;;;;;;5132830;27;20775;-54
2022/05/07 07:04:25;;;;;;;2.53;1.60;;;13.60;99.90;;;;;;5129487;27;20456;-53
2022/05/07 07:06:52;;;;;;;6.73;2.20;;;13.70;1.00;;;;;;5130005;27;20491;-52
2022/05/07 07:09:19;;;;;;;2.77;2.37;;;13.80;14.40;;;;;;5131627;27;20452;-55
2022/05/07 07:11:47;;;;;;;2.93;2.50;;;13.80;13.00;;;;;;5129616;27;20790;-51
2022/05/07 07:14:16;;;;;;;3.20;2.53;;;13.80;1.00;;;;;;5130300;28;20452;-55
2022/05/07 07:16:43;;;;;;;2.30;1.40;;;14.00;1.00;;;;;;5124005;28;20515;-53
2022/05/07 07:19:10;;;;;;;2.50;1.40;;;14.10;99.90;;;;;;5131622;28;20459;-49
2022/05/07 07:21:37;;;;;;;2.33;1.20;;;14.30;1.00;;;;;;5127748;28;20902;-53
2022/05/07 07:24:04;;;;;;;2.03;1.70;;;14.40;1.00;;;;;;5128387;28;20458;-53
2022/05/07 07:26:31;;;;;;;2.43;1.20;;;14.50;1.00;;;;;;5130005;28;20466;-54
2022/05/07 07:28:59;;;;;;;4.50;1.50;;;14.60;1.00;;;;;;5127817;28;20445;-54
2022/05/07 07:31:26;;;;;;;2.20;1.92;;;14.80;99.90;;;;;;5130485;28;20458;-52
2022/05/07 07:33:52;;;;;;;4.50;1.80;;;14.70;99.90;;;;;;5130926;28;20194;-53
2022/05/07 07:36:19;;;;;;;3.10;1.77;;;14.70;99.90;;;;;;5126449;28;20478;-51
2022/05/07 07:38:46;;;;;;;1.50;0.93;;;14.80;99.90;;;;;;5129386;28;20479;-53
2022/05/07 07:41:13;;;;;;;2.80;1.30;;;14.90;99.90;;;;;;5132061;28;20550;-49
2022/05/07 07:43:40;;;;;;;1.80;1.20;;;15.00;99.90;;;;;;5124285;28;20459;-56
2022/05/07 07:48:53;;;;;;;3.73;1.10;;;15.30;14.40;;;;;;5131044;28;20965;-54
2022/05/07 07:51:20;;;;;;;2.27;1.30;;;15.40;69.30;;;;;;5127528;28;20460;-51
2022/05/07 07:53:47;;;;;;;2.77;1.13;;;15.50;99.90;;;;;;5124700;28;20567;-54
2022/05/07 07:56:15;;;;;;;3.13;2.30;;;15.60;99.90;;;;;;5126285;28;20492;-52
2022/05/07 07:58:43;;;;;;;2.40;1.80;;;15.70;28.00;;;;;;5112194;28;21135;-54
2022/05/07 08:01:11;;;;;;;2.40;1.50;;;15.70;29.20;;;;;;5109402;28;20955;-55
2022/05/07 08:03:37;;;;;;;3.60;1.57;;;15.90;59.20;;;;;;5112084;28;20464;-57
2022/05/07 08:06:04;;;;;;;2.60;1.70;;;16.10;19.90;;;;;;5110502;28;20547;-49
2022/05/07 08:14:00;;;;;;;2.47;2.03;;;16.30;1.00;;;;;;5111016;28;20483;-52
2022/05/07 08:16:28;;;;;;;3.50;2.87;;;16.40;1.00;;;;;;5106978;28;22119;-54
2022/05/07 08:18:57;;;;;;;4.63;3.53;;;16.50;1.00;;;;;;5109532;28;20484;-54
2022/05/07 08:21:24;;;;;;;4.90;2.67;;;16.40;1.00;;;;;;5105184;28;20455;-53
2022/05/07 08:23:51;;;;;;;3.17;1.80;;;16.50;1.00;;;;;;5109876;28;20460;-52
2022/05/07 08:26:18;;;;;;;5.93;3.33;;;16.60;1.00;;;;;;5107370;28;20487;-54
2022/05/07 08:28:45;;;;;;;6.10;2.50;;;16.60;1.00;;;;;;5109998;28;21023;-55
2022/05/07 08:31:13;;;;;;;3.20;2.43;;;16.70;1.00;;;;;;5110421;28;20840;-55
2022/05/07 08:33:42;;;;;;;3.40;2.40;;;16.70;1.00;;;;;;5116192;28;20468;-53
2022/05/07 08:36:10;;;;;;;2.67;2.00;;;16.80;1.00;;;;;;5110998;28;20453;-50
2022/05/07 08:38:37;;;;;;;5.37;3.07;;;17.00;1.00;;;;;;5110729;28;20487;-56
2022/05/07 08:41:04;;;;;;;4.00;2.87;;;17.00;1.00;;;;;;5111450;28;20452;-52
2022/05/07 08:43:36;;;;;;;3.30;3.00;;;17.10;1.00;;;;;;5114459;28;20456;-51
2022/05/07 08:46:10;;;;;;;4.37;3.27;;;17.20;1.00;;;;;;5108171;28;20460;-54
2022/05/07 08:48:36;;;;;;;7.17;3.53;;;17.30;1.00;;;;;;5112545;28;20460;-51
2022/05/07 08:51:05;;;;;;;4.83;2.97;;;17.40;1.00;;;;;;5113662;28;20452;-50
2022/05/07 08:53:32;;;;;;;4.13;3.73;;;17.60;1.00;;;;;;5116470;28;20460;-54
2022/05/07 08:55:59;;;;;;;4.70;2.47;;;17.70;1.00;;;;;;5112839;28;20575;-53
2022/05/07 08:58:26;;;;;;;4.93;3.50;;;17.80;1.00;;;;;;5113895;28;20491;-50
2022/05/07 09:00:53;;;;;;;3.80;2.40;;;17.80;1.00;;;;;;5111552;28;20483;-52
2022/05/07 09:03:20;;;;;;;6.53;3.10;;;17.90;1.00;;;;;;5111730;28;20465;-54
2022/05/07 09:05:47;;;;;;;3.10;2.60;;;18.00;1.00;;;;;;5114847;28;21267;-53
2022/05/07 09:08:15;;;;;;;7.33;2.50;;;18.00;1.00;;;;;;5112335;28;20461;-51
2022/05/07 09:10:43;;;;;;;4.13;2.70;;;18.10;1.00;;;;;;5113039;28;20473;-55
2022/05/07 09:13:12;;;;;;;3.77;2.50;;;18.30;1.00;;;;;;5113593;28;20461;-53
2022/05/07 09:15:50;;;;;;;5.43;3.43;;;18.50;1.00;;;;;;5107492;28;20457;-54
2022/05/07 09:18:18;;;;;;;3.30;2.40;;;18.60;1.00;;;;;;5112469;28;20983;-52
2022/05/07 09:20:45;;;;;;;3.60;2.47;;;18.70;1.00;;;;;;5111121;28;20904;-55
2022/05/07 09:23:12;;;;;;;13.07;10.07;;;18.80;1.00;;;;;;5114490;28;20843;-55
2022/05/07 09:25:46;;;;;;;3.30;2.67;;;18.80;1.00;;;;;;5113657;28;20510;-52
2022/05/07 09:28:13;;;;;;;2.23;2.00;;;18.80;1.00;;;;;;5114233;28;20523;-51
2022/05/07 09:30:42;;;;;;;2.83;1.30;;;18.80;1.00;;;;;;5114273;28;20546;-53
2022/05/07 09:33:09;;;;;;;1.80;1.20;;;18.90;1.00;;;;;;5105960;28;20457;-55
2022/05/07 09:35:47;;;;;;;1.90;1.40;;;18.80;1.00;;;;;;5109062;28;20460;-51
2022/05/07 09:38:15;;;;;;;2.40;1.57;;;18.80;1.00;;;;;;5112773;28;20935;-54
2022/05/07 09:40:44;;;;;;;2.27;1.30;;;19.00;1.00;;;;;;5106126;28;20464;-53
2022/05/07 09:43:13;;;;;;;2.93;1.60;;;19.10;1.00;;;;;;5113974;28;20441;-53
2022/05/07 09:45:41;;;;;;;2.27;1.10;;;19.30;1.00;;;;;;5114157;28;20457;-54
2022/05/07 09:48:12;;;;;;;1.50;1.20;;;19.40;1.00;;;;;;5113635;28;20451;-51
2022/05/07 09:50:44;;;;;;;2.77;0.90;;;19.50;1.00;;;;;;5110001;28;20461;-55
2022/05/07 09:58:44;;;;;;;1.40;0.90;;;19.80;1.00;;;;;;5124077;27;20497;-53
2022/05/07 10:01:32;;;;;;;1.87;0.77;;;20.00;1.00;;;;;;5127178;27;20470;-52
2022/05/07 10:04:37;;;;;;;1.80;0.87;;;20.10;1.00;;;;;;5125983;27;20480;-52
2022/05/07 10:07:19;;;;;;;1.07;0.70;;;20.20;1.00;;;;;;5128110;27;20566;-53
2022/05/07 10:10:02;;;;;;;1.00;0.70;;;20.60;1.00;;;;;;5126647;27;20660;-51
2022/05/07 10:12:30;;;;;;;1.30;0.67;;;20.90;1.00;;;;;;5128118;27;20451;-51
2022/05/07 10:15:07;;;;;;;2.23;0.70;;;21.10;1.00;;;;;;5127815;27;20482;-51
2022/05/07 10:17:35;;;;;;;1.50;0.73;;;21.20;1.00;;;;;;5129585;27;20460;-53
2022/05/07 10:20:06;;;;;;;0.87;0.70;;;21.30;1.00;;;;;;5125537;27;20455;-54
2022/05/07 10:22:34;;;;;;;3.03;0.87;;;21.70;1.00;;;;;;5118789;27;20543;-48
2022/05/07 10:25:04;;;;;;;1.00;0.60;;;22.10;1.00;;;;;;5126221;27;20460;-54
2022/05/07 10:27:32;;;;;;;0.87;0.60;;;22.50;1.00;;;;;;5128487;27;20452;-53
2022/05/07 10:30:07;;;;;;;0.90;0.40;;;22.90;1.00;;;;;;5120646;27;20491;-54
2022/05/07 10:32:46;;;;;;;0.60;0.40;;;23.20;1.00;;;;;;5122900;27;20452;-53
2022/05/07 10:35:14;;;;;;;0.50;0.40;;;23.10;1.00;;;;;;5124213;27;20465;-50
2022/05/07 10:37:42;;;;;;;0.90;0.50;;;23.30;1.00;;;;;;5125356;27;21160;-52
2022/05/07 10:40:12;;;;;;;1.03;0.60;;;23.20;1.00;;;;;;5119846;27;22193;-53
2022/05/07 10:42:40;;;;;;;0.67;0.50;;;23.20;1.00;;;;;;5124927;27;20690;-54
2022/05/07 10:45:20;;;;;;;0.97;0.60;;;23.00;1.00;;;;;;5125146;27;20555;-54
2022/05/07 10:47:54;;;;;;;0.83;0.60;;;23.50;1.00;;;;;;5124206;27;20460;-54
2022/05/07 10:50:23;;;;;;;1.00;0.50;;;23.80;1.00;;;;;;5128538;27;20547;-54
2022/05/07 10:52:56;;;;;;;1.10;0.67;;;23.60;1.00;;;;;;5122349;27;20749;-53
2022/05/07 10:55:26;;;;;;;1.30;1.00;;;23.50;1.00;;;;;;5134312;27;20450;-53
2022/05/07 10:57:56;;;;;;;0.70;0.60;;;23.60;1.00;;;;;;5104727;27;20956;-53
2022/05/07 11:00:25;;;;;;;0.77;0.70;;;23.80;1.00;;;;;;5109946;28;20846;-54
2022/05/07 11:02:58;;;;;;;1.23;0.63;;;24.00;1.00;;;;;;5111249;28;20494;-54
2022/05/07 11:05:31;;;;;;;1.53;0.80;;;23.60;1.00;;;;;;5113409;28;20495;-56
2022/05/07 11:07:58;;;;;;;3.37;1.70;;;23.40;1.00;;;;;;5112840;28;20938;-54
2022/05/07 11:10:25;;;;;;;0.80;0.60;;;23.20;1.00;;;;;;5107737;28;20468;-55
2022/05/07 11:13:04;;;;;;;1.67;0.83;;;22.90;1.00;;;;;;5111289;28;20563;-53
2022/05/07 11:15:32;;;;;;;1.50;0.60;;;22.60;1.00;;;;;;5109977;28;20911;-54
2022/05/07 11:17:59;;;;;;;0.70;0.60;;;22.80;1.00;;;;;;5111642;28;20486;-59
2022/05/07 11:20:31;;;;;;;0.80;0.67;;;22.90;1.00;;;;;;5112243;28;20463;-57
2022/05/07 11:23:03;;;;;;;0.80;0.63;;;22.40;1.00;;;;;;5115445;28;20490;-56
2022/05/07 11:28:52;;;;;;;0.90;0.60;;;22.70;1.00;;;;;;5108856;28;20428;-58
2022/05/07 11:31:28;;;;;;;1.27;0.53;;;23.30;1.00;;;;;;5111898;28;20916;-57
2022/05/07 11:34:03;;;;;;;0.80;0.60;;;23.70;1.00;;;;;;5114229;28;20450;-56
2022/05/07 11:36:33;;;;;;;0.70;0.50;;;24.10;1.00;;;;;;5109267;28;20462;-56
2022/05/07 11:39:02;;;;;;;1.20;0.50;;;24.10;1.00;;;;;;5113501;28;20480;-56
2022/05/07 11:41:29;;;;;;;1.10;0.60;;;23.90;1.00;;;;;;5107449;28;20519;-56
2022/05/07 11:46:53;;;;;;;0.63;0.53;;;23.00;1.00;;;;;;5110144;28;20582;-54
2022/05/07 11:49:30;;;;;;;0.80;0.50;;;22.60;1.00;;;;;;5112010;28;20589;-54
2022/05/07 11:52:11;;;;;;;0.80;0.50;;;22.70;1.00;;;;;;5112733;28;20453;-56
2022/05/07 11:54:49;;;;;;;1.40;0.60;;;23.10;1.00;;;;;;5107595;28;20496;-56
2022/05/07 11:57:27;;;;;;;0.70;0.60;;;23.50;1.00;;;;;;5115066;28;20476;-55
2022/05/07 11:59:54;;;;;;;1.27;0.70;;;23.60;1.00;;;;;;5115077;28;20484;-54
2022/05/07 12:02:22;;;;;;;0.83;0.60;;;23.40;1.00;;;;;;5111400;28;20448;-55
2022/05/07 12:04:57;;;;;;;0.73;0.50;;;23.60;1.00;;;;;;5116890;28;20452;-56
2022/05/07 12:07:47;;;;;;;0.60;0.50;;;23.80;1.00;;;;;;5117981;28;20941;-55
2022/05/07 12:10:14;;;;;;;0.63;0.40;;;24.10;1.00;;;;;;5116500;28;20454;-55
2022/05/07 12:12:41;;;;;;;1.00;0.50;;;24.10;1.00;;;;;;5114109;28;20456;-55
2022/05/07 12:15:09;;;;;;;0.60;0.50;;;23.90;1.00;;;;;;5114908;28;20463;-55
2022/05/07 12:17:52;;;;;;;0.70;0.53;;;23.30;1.00;;;;;;5115325;28;20444;-54
2022/05/07 12:20:20;;;;;;;0.93;0.70;;;23.00;1.00;;;;;;5114749;28;20937;-54
2022/05/07 12:31:01;;;;;;;1.50;0.47;;;22.70;1.00;;;;;;5110332;28;20448;-55
2022/05/07 12:33:30;;;;;;;0.57;0.50;;;23.00;1.00;;;;;;5114408;28;20453;-55
2022/05/07 12:35:57;;;;;;;1.17;0.60;;;23.30;1.00;;;;;;5116193;28;20479;-56
2022/05/07 12:38:23;;;;;;;1.00;0.40;;;23.30;1.00;;;;;;5114269;28;20476;-53
2022/05/07 12:40:50;;;;;;;1.23;0.50;;;22.80;1.00;;;;;;5112552;28;20457;-52
2022/05/07 12:43:17;;;;;;;0.70;0.53;;;22.40;1.00;;;;;;5115455;28;20547;-53
2022/05/07 12:45:44;;;;;;;0.73;0.60;;;22.00;1.00;;;;;;5113093;28;20460;-54
2022/05/07 12:48:12;;;;;;;1.90;0.60;;;22.00;1.00;;;;;;5112507;28;20898;-55
2022/05/07 12:50:40;;;;;;;1.00;0.50;;;22.50;1.00;;;;;;5112537;28;20459;-52
2022/05/07 12:53:07;;;;;;;0.60;0.50;;;23.10;1.00;;;;;;5113939;28;20737;-56
2022/05/07 12:55:34;;;;;;;1.17;0.50;;;23.70;1.00;;;;;;5116137;28;20859;-55
2022/05/07 12:58:01;;;;;;;2.10;0.53;;;24.30;1.00;;;;;;5130619;27;20479;-54
2022/05/07 13:00:27;;;;;;;0.70;0.60;;;24.20;1.00;;;;;;5133972;27;20440;-54
2022/05/07 13:02:56;;;;;;;0.70;0.60;;;24.50;1.00;;;;;;5134756;27;20462;-55
2022/05/07 13:05:23;;;;;;;1.37;0.60;;;24.60;1.00;;;;;;5136948;27;20504;-54
2022/05/07 13:07:51;;;;;;;5.23;0.50;;;24.30;1.00;;;;;;5130439;27;20462;-58
2022/05/07 13:10:18;;;;;;;1.10;0.70;;;23.60;1.00;;;;;;5132038;27;20440;-58
2022/05/07 13:12:46;;;;;;;5.20;2.60;;;23.60;1.00;;;;;;5132010;27;20895;-58
2022/05/07 13:15:13;;;;;;;2.00;0.60;;;23.80;1.00;;;;;;5135031;27;20448;-58
2022/05/07 13:17:40;;;;;;;1.00;0.50;;;23.90;1.00;;;;;;5131343;27;20459;-58
2022/05/07 13:20:08;;;;;;;0.70;0.50;;;24.20;1.00;;;;;;5134999;27;20614;-58
2022/05/07 13:22:35;;;;;;;0.60;0.40;;;24.20;1.00;;;;;;5136569;27;20447;-59
2022/05/07 13:25:04;;;;;;;0.63;0.60;;;24.40;1.00;;;;;;5130142;27;20471;-58
2022/05/07 13:27:33;;;;;;;0.73;0.53;;;24.00;1.00;;;;;;5125686;27;20452;-61
2022/05/07 13:30:00;;;;;;;2.27;0.40;;;24.20;1.00;;;;;;5125810;27;20794;-57
2022/05/07 13:32:27;;;;;;;1.10;0.53;;;24.50;1.00;;;;;;5130233;27;20459;-57
2022/05/07 13:34:53;;;;;;;0.90;0.50;;;24.80;1.00;;;;;;5126389;27;21250;-56
2022/05/07 13:37:20;;;;;;;0.80;0.50;;;24.70;1.00;;;;;;5132646;27;20454;-57
2022/05/07 13:39:47;;;;;;;1.00;0.63;;;24.80;1.00;;;;;;5129461;27;20501;-57
2022/05/07 13:42:15;;;;;;;1.23;0.67;;;24.20;1.00;;;;;;5135712;27;20458;-58
2022/05/07 13:44:42;;;;;;;1.47;1.00;;;24.00;1.00;;;;;;5129399;27;20552;-55
2022/05/07 13:47:09;;;;;;;1.27;0.60;;;24.00;1.00;;;;;;5129350;27;20758;-57